Gemma — ICPC — position and weather

sailwx.info

Track history (hours):
 
Tides and Currents Weather Stations Pressure Air Temp Water Temp Dewpoint Dewpoint Depression Visibility Wind Speed Wind Dir Waves Ship Positions

Gemma

Last reported at 2018-Feb-06 05:17 UTC. Time now 2018-Feb-22 13:16 UTC.
Position N 28°04' W 013°43'.
Warning: this ship's position is 16 days out of date.

Length 330 m; draft 14.4 m.

Type: Ship. MMSI: 247302100.

Date/timePositionNaut miles runAvg speedWind from/ knotsBaromVisibWave heightAir tempDewpointWater temp
2018-Feb-06 05:17N 28°04' W 013°43'415.1
2018-Feb-06 05:00N 28°08' W 013°40'62313.7
2018-Feb-04 07:28N 35°58' W 005°38'4 8.7
2018-Feb-04 07:00N 35°58' W 005°33'5 9.3
2018-Feb-04 06:31N 35°60' W 005°28'4 8.5
2018-Feb-04 06:01N 36°03' W 005°24'5 9.0
2018-Feb-04 05:30N 36°07' W 005°23'1 1.1
2018-Feb-04 04:56N 36°08' W 005°23'0 0.1
2018-Feb-04 04:26N 36°08' W 005°23'0 0.2
2018-Feb-04 03:56N 36°08' W 005°23'0 0.1
2018-Feb-04 03:29N 36°08' W 005°23'0 0.1
2018-Feb-04 02:56N 36°08' W 005°23'0 0.1
2018-Feb-04 02:29N 36°08' W 005°23'0 0.2
2018-Feb-04 01:59N 36°08' W 005°23'0 0.0
2018-Feb-04 01:29N 36°08' W 005°23'0 0.1
2018-Feb-04 00:59N 36°08' W 005°23'0 0.0
2018-Feb-03 20:26N 36°08' W 005°23'0 0.0
2018-Feb-03 19:47N 36°08' W 005°23'0 0.0
2018-Feb-03 16:56N 36°08' W 005°23'0 0.1
2018-Feb-03 15:56N 36°08' W 005°23'0 0.1
2018-Feb-03 15:26N 36°08' W 005°23'0 0.1
2018-Feb-03 14:44N 36°08' W 005°23'0 0.2
2018-Feb-03 14:29N 36°08' W 005°23'0 0.1
2018-Feb-03 13:53N 36°08' W 005°23'3 1.6
2018-Feb-03 12:08N 36°05' W 005°21'1 4.7
2018-Feb-03 12:00N 36°05' W 005°20'0 0.9
2018-Feb-03 11:28N 36°05' W 005°20'1 2.5
2018-Feb-03 11:00N 36°04' W 005°19'2 4.0
2018-Feb-03 10:31N 36°03' W 005°16'4 8.2
2018-Feb-03 10:00N 36°03' W 005°11'  
2018-Jan-31 14:47N 36°43' E 014°06'414.0
2018-Jan-31 14:29N 36°42' E 014°11'2013.5
2018-Jan-31 13:00N 36°38' E 014°36'6512.1
2018-Jan-31 07:38N 37°12' E 015°45'213.8
2018-Jan-31 07:30N 37°14' E 015°46'813.9
2018-Jan-31 06:55N 37°20' E 015°52'614.0
2018-Jan-31 06:31N 37°25' E 015°56'814.0
2018-Jan-31 05:56N 37°32' E 016°02'713.8
2018-Jan-31 05:26N 37°37' E 016°07'614.3
2018-Jan-31 05:00N 37°43' E 016°11'10614.0
2018-Jan-30 21:25N 39°15' E 017°18'714.7
2018-Jan-30 20:57N 39°22' E 017°17'714.8
2018-Jan-30 20:29N 39°29' E 017°16'714.7
2018-Jan-30 19:59N 39°36' E 017°15'814.6
2018-Jan-30 19:28N 39°43' E 017°14'714.4
2018-Jan-30 19:00N 39°50' E 017°13'714.4
2018-Jan-30 18:30N 39°57' E 017°12'714.5
2018-Jan-30 18:00N 40°04' E 017°11'714.7
2018-Jan-30 17:30N 40°12' E 017°10'714.2
2018-Jan-30 17:00N 40°19' E 017°08'612.2
2018-Jan-30 16:31N 40°25' E 017°08'5 9.2
2018-Jan-30 16:00N 40°27' E 017°13'1 1.1
2018-Jan-30 15:21N 40°28' E 017°14'0 0.2
2018-Jan-30 14:57N 40°28' E 017°14'0 0.0
2018-Jan-30 14:27N 40°28' E 017°14'0 0.1
2018-Jan-30 13:27N 40°28' E 017°14'0 0.0
2018-Jan-30 12:57N 40°28' E 017°14'0 0.1
2018-Jan-30 12:27N 40°28' E 017°14'0 0.2
2018-Jan-30 11:57N 40°28' E 017°14'0 0.2
2018-Jan-30 11:27N 40°28' E 017°13'0 0.1
2018-Jan-30 10:27N 40°28' E 017°13'0 0.0
2018-Jan-30 09:27N 40°28' E 017°13'0 0.0
2018-Jan-30 08:57N 40°28' E 017°13'0 0.0
2018-Jan-30 08:27N 40°28' E 017°14'0 0.0
2018-Jan-30 07:45N 40°28' E 017°14'0 0.0
2018-Jan-30 07:27N 40°28' E 017°14'0 0.0
2018-Jan-30 07:00N 40°28' E 017°14'0 0.0
2018-Jan-30 06:27N 40°28' E 017°14'0 0.0
2018-Jan-30 05:57N 40°28' E 017°14'0 0.0
2018-Jan-30 05:30N 40°28' E 017°14'0 0.0
2018-Jan-30 05:00N 40°28' E 017°14'0 0.0
2018-Jan-30 04:30N 40°28' E 017°14'0 0.0
2018-Jan-30 04:00N 40°28' E 017°14'0 0.0
2018-Jan-30 03:30N 40°28' E 017°14'0 0.0
2018-Jan-30 03:00N 40°28' E 017°14'0 0.0
2018-Jan-30 02:30N 40°28' E 017°14'0 0.0
2018-Jan-30 02:00N 40°28' E 017°14'0 0.0
2018-Jan-30 01:30N 40°28' E 017°14'0 0.0
2018-Jan-30 01:00N 40°28' E 017°14'0 0.0
2018-Jan-30 00:30N 40°28' E 017°14'0 0.1
2018-Jan-30 00:00N 40°28' E 017°13'0 0.1
2018-Jan-29 23:30N 40°28' E 017°13'0 0.1
2018-Jan-29 23:00N 40°28' E 017°13'0 0.0
2018-Jan-29 22:30N 40°28' E 017°13'0 0.0
2018-Jan-29 22:00N 40°28' E 017°13'0 0.0
2018-Jan-29 21:30N 40°28' E 017°13'0 0.0
2018-Jan-29 21:00N 40°28' E 017°13'0 0.0
2018-Jan-29 20:30N 40°28' E 017°13'0 0.0
2018-Jan-29 20:00N 40°28' E 017°13'0 0.0
2018-Jan-29 19:30N 40°28' E 017°13'0 0.0
2018-Jan-29 19:00N 40°28' E 017°13'0 0.0
2018-Jan-29 18:30N 40°28' E 017°13'0 0.0
2018-Jan-29 18:00N 40°28' E 017°13'0 0.1
2018-Jan-29 17:27N 40°28' E 017°13'0 0.1
2018-Jan-29 17:00N 40°28' E 017°14'0 0.0
2018-Jan-29 16:30N 40°28' E 017°14'0 0.0
2018-Jan-29 16:00N 40°28' E 017°14'0 0.0
2018-Jan-29 15:27N 40°28' E 017°14'0 0.1
2018-Jan-29 14:57N 40°28' E 017°14'0 0.1
2018-Jan-29 14:27N 40°28' E 017°14'0 0.0
2018-Jan-29 13:57N 40°28' E 017°14'0 0.0
2018-Jan-29 13:27N 40°28' E 017°14'0 0.1
2018-Jan-29 12:57N 40°28' E 017°14'0 0.2
2018-Jan-29 12:27N 40°28' E 017°14'0 0.2
2018-Jan-29 11:57N 40°28' E 017°14'0 0.0
2018-Jan-29 11:27N 40°28' E 017°14'0 0.0
2018-Jan-29 10:57N 40°28' E 017°14'0 0.0
2018-Jan-29 10:30N 40°28' E 017°14'0 0.0
2018-Jan-29 09:57N 40°28' E 017°14'0 0.1
2018-Jan-29 09:27N 40°28' E 017°14'0 0.2
2018-Jan-29 08:57N 40°28' E 017°14'0 0.2
2018-Jan-29 08:27N 40°28' E 017°14'0 0.1
2018-Jan-29 07:57N 40°28' E 017°14'0 0.0
2018-Jan-29 07:27N 40°28' E 017°14'0 0.0
2018-Jan-29 06:57N 40°28' E 017°14'0 0.0
2018-Jan-29 06:27N 40°28' E 017°14'0 0.0
2018-Jan-29 06:00N 40°28' E 017°14'0 0.0
2018-Jan-29 05:30N 40°28' E 017°14'0 0.1
2018-Jan-29 05:00N 40°28' E 017°14'0 0.0
2018-Jan-29 04:30N 40°28' E 017°14'0 0.1
2018-Jan-29 04:00N 40°28' E 017°14'0 0.0
2018-Jan-29 03:30N 40°28' E 017°14'0 0.0
2018-Jan-29 03:00N 40°28' E 017°14'0 0.0
2018-Jan-29 02:30N 40°28' E 017°14'0 0.0
2018-Jan-29 02:00N 40°28' E 017°14'0 0.0
2018-Jan-29 01:30N 40°28' E 017°14'0 0.0
2018-Jan-29 01:00N 40°28' E 017°14'0 0.0
2018-Jan-29 00:30N 40°28' E 017°14'0 0.0
2018-Jan-29 00:00N 40°28' E 017°14'0 0.0
2018-Jan-28 23:30N 40°28' E 017°14'0 0.1
2018-Jan-28 23:00N 40°28' E 017°14'0 0.1
2018-Jan-28 22:30N 40°28' E 017°14'0 0.0
2018-Jan-28 22:00N 40°28' E 017°14'0 0.0
2018-Jan-28 21:30N 40°28' E 017°14'0 0.0
2018-Jan-28 21:00N 40°28' E 017°14'0 0.0
2018-Jan-28 20:30N 40°28' E 017°14'0 0.0
2018-Jan-28 19:54N 40°28' E 017°14'0 0.1
2018-Jan-28 19:30N 40°28' E 017°14'0 0.1
2018-Jan-28 19:00N 40°28' E 017°14'0 0.0
2018-Jan-28 18:30N 40°28' E 017°14'0 0.0
2018-Jan-28 18:00N 40°28' E 017°14'0 0.0
2018-Jan-28 17:30N 40°28' E 017°14'0 0.0
2018-Jan-28 16:57N 40°28' E 017°14'0 0.0
2018-Jan-28 16:27N 40°28' E 017°14'0 0.1
2018-Jan-28 16:00N 40°28' E 017°14'0 0.0
2018-Jan-28 15:30N 40°28' E 017°14'0 0.1
2018-Jan-28 15:00N 40°28' E 017°14'0 0.0
2018-Jan-28 14:30N 40°28' E 017°14'0 0.0
2018-Jan-28 14:00N 40°28' E 017°14'0 0.0
2018-Jan-28 13:30N 40°28' E 017°14'0 0.0
2018-Jan-28 13:00N 40°28' E 017°14'0 0.2
2018-Jan-28 12:30N 40°28' E 017°14'0 0.2
2018-Jan-28 12:00N 40°28' E 017°14'0 0.1
2018-Jan-28 11:30N 40°28' E 017°14'0 0.0
2018-Jan-28 11:00N 40°28' E 017°14'0 0.0
2018-Jan-28 10:27N 40°28' E 017°14'0 0.0
2018-Jan-28 09:57N 40°28' E 017°14'0 0.0
2018-Jan-28 09:27N 40°28' E 017°14'0 0.1
2018-Jan-28 08:57N 40°28' E 017°14'0 0.1
2018-Jan-28 08:27N 40°28' E 017°14'0 0.1
2018-Jan-28 07:57N 40°28' E 017°14'0 0.1
2018-Jan-28 07:27N 40°28' E 017°14'0 0.0
2018-Jan-28 06:57N 40°28' E 017°14'0 0.1
2018-Jan-28 06:27N 40°28' E 017°14'0 0.2
2018-Jan-28 05:57N 40°28' E 017°14'0 0.1
2018-Jan-28 05:30N 40°28' E 017°14'0 0.0
2018-Jan-28 05:00N 40°28' E 017°14'0 0.0
2018-Jan-28 04:30N 40°28' E 017°14'0 0.0
2018-Jan-28 04:00N 40°28' E 017°13'0 0.0
2018-Jan-28 03:30N 40°28' E 017°13'0 0.0
2018-Jan-28 03:00N 40°28' E 017°13'0 0.0
2018-Jan-28 02:30N 40°28' E 017°13'0 0.1
2018-Jan-28 02:00N 40°28' E 017°13'0 0.0
2018-Jan-28 01:30N 40°28' E 017°13'0 0.0
2018-Jan-28 01:00N 40°28' E 017°13'0 0.0
2018-Jan-28 00:30N 40°28' E 017°13'0 0.0
2018-Jan-28 00:00N 40°28' E 017°13'0 0.0
2018-Jan-27 23:30N 40°28' E 017°13'0 0.0
2018-Jan-27 23:00N 40°28' E 017°13'0 0.0
2018-Jan-27 22:30N 40°28' E 017°13'0 0.0
2018-Jan-27 22:00N 40°28' E 017°13'0 0.0
2018-Jan-27 21:30N 40°28' E 017°13'0 0.0
2018-Jan-27 21:00N 40°28' E 017°13'0 0.1
2018-Jan-27 20:30N 40°28' E 017°13'0 0.0
2018-Jan-27 20:00N 40°28' E 017°13'0 0.0
2018-Jan-27 19:30N 40°28' E 017°13'0 0.0
2018-Jan-27 18:57N 40°28' E 017°13'0 0.0
2018-Jan-27 18:30N 40°28' E 017°13'0 0.0
2018-Jan-27 18:00N 40°28' E 017°13'0 0.0
2018-Jan-27 17:30N 40°28' E 017°13'0 0.2
2018-Jan-27 17:00N 40°28' E 017°13'0 0.1
2018-Jan-27 16:30N 40°28' E 017°13'0 0.1
2018-Jan-27 16:00N 40°28' E 017°13'0 0.2
2018-Jan-27 15:30N 40°28' E 017°13'0 0.0
2018-Jan-27 14:57N 40°28' E 017°13'0 0.0
2018-Jan-27 14:27N 40°28' E 017°13'0 0.1
2018-Jan-27 13:57N 40°28' E 017°13'0 0.0
2018-Jan-27 13:27N 40°28' E 017°13'0 0.0
2018-Jan-27 12:57N 40°28' E 017°13'0 0.0
2018-Jan-27 12:27N 40°28' E 017°13'0 0.0
2018-Jan-27 12:00N 40°28' E 017°13'0 0.0
2018-Jan-27 11:27N 40°28' E 017°13'0 0.0
2018-Jan-27 10:57N 40°28' E 017°13'0 0.0
2018-Jan-27 10:30N 40°28' E 017°13'0 0.0
2018-Jan-27 10:00N 40°28' E 017°13'0 0.0
2018-Jan-27 09:27N 40°28' E 017°13'0 0.0
2018-Jan-27 08:57N 40°28' E 017°13'0 0.0
2018-Jan-27 08:27N 40°28' E 017°13'0 0.0
2018-Jan-27 08:00N 40°28' E 017°13'0 0.0
2018-Jan-27 07:30N 40°28' E 017°13'0 0.0
2018-Jan-27 07:00N 40°28' E 017°13'0 0.0
2018-Jan-27 06:30N 40°28' E 017°13'0 0.0
2018-Jan-27 05:57N 40°28' E 017°13'0 0.0
2018-Jan-27 05:30N 40°28' E 017°13'  
Track history (hours):
 
Tides and Currents Weather Stations Pressure Air Temp Water Temp Dewpoint Dewpoint Depression Visibility Wind Speed Wind Dir Waves Ship Positions

Gemma

Last reported at 2018-Feb-06 05:17 UTC. Time now 2018-Feb-22 13:16 UTC.
Position N 28°04' W 013°43'.
Warning: this ship's position is 16 days out of date.

Length 330 m; draft 14.4 m.

Type: Ship. MMSI: 247302100.

Date/timePositionNaut miles runAvg speedWind from/ knotsBaromVisibWave heightAir tempDewpointWater temp
2018-Feb-06 05:17N 28°04' W 013°43'415.1
2018-Feb-06 05:00N 28°08' W 013°40'62313.7
2018-Feb-04 07:28N 35°58' W 005°38'4 8.7
2018-Feb-04 07:00N 35°58' W 005°33'5 9.3
2018-Feb-04 06:31N 35°60' W 005°28'4 8.5
2018-Feb-04 06:01N 36°03' W 005°24'5 9.0
2018-Feb-04 05:30N 36°07' W 005°23'1 1.1
2018-Feb-04 04:56N 36°08' W 005°23'0 0.1
2018-Feb-04 04:26N 36°08' W 005°23'0 0.2
2018-Feb-04 03:56N 36°08' W 005°23'0 0.1
2018-Feb-04 03:29N 36°08' W 005°23'0 0.1
2018-Feb-04 02:56N 36°08' W 005°23'0 0.1
2018-Feb-04 02:29N 36°08' W 005°23'0 0.2
2018-Feb-04 01:59N 36°08' W 005°23'0 0.0
2018-Feb-04 01:29N 36°08' W 005°23'0 0.1
2018-Feb-04 00:59N 36°08' W 005°23'0 0.0
2018-Feb-03 20:26N 36°08' W 005°23'0 0.0
2018-Feb-03 19:47N 36°08' W 005°23'0 0.0
2018-Feb-03 16:56N 36°08' W 005°23'0 0.1
2018-Feb-03 15:56N 36°08' W 005°23'0 0.1
2018-Feb-03 15:26N 36°08' W 005°23'0 0.1
2018-Feb-03 14:44N 36°08' W 005°23'0 0.2
2018-Feb-03 14:29N 36°08' W 005°23'0 0.1
2018-Feb-03 13:53N 36°08' W 005°23'3 1.6
2018-Feb-03 12:08N 36°05' W 005°21'1 4.7
2018-Feb-03 12:00N 36°05' W 005°20'0 0.9
2018-Feb-03 11:28N 36°05' W 005°20'1 2.5
2018-Feb-03 11:00N 36°04' W 005°19'2 4.0
2018-Feb-03 10:31N 36°03' W 005°16'4 8.2
2018-Feb-03 10:00N 36°03' W 005°11'  
2018-Jan-31 14:47N 36°43' E 014°06'414.0
2018-Jan-31 14:29N 36°42' E 014°11'2013.5
2018-Jan-31 13:00N 36°38' E 014°36'6512.1
2018-Jan-31 07:38N 37°12' E 015°45'213.8
2018-Jan-31 07:30N 37°14' E 015°46'813.9
2018-Jan-31 06:55N 37°20' E 015°52'614.0
2018-Jan-31 06:31N 37°25' E 015°56'814.0
2018-Jan-31 05:56N 37°32' E 016°02'713.8
2018-Jan-31 05:26N 37°37' E 016°07'614.3
2018-Jan-31 05:00N 37°43' E 016°11'10614.0
2018-Jan-30 21:25N 39°15' E 017°18'714.7
2018-Jan-30 20:57N 39°22' E 017°17'714.8
2018-Jan-30 20:29N 39°29' E 017°16'714.7
2018-Jan-30 19:59N 39°36' E 017°15'814.6
2018-Jan-30 19:28N 39°43' E 017°14'714.4
2018-Jan-30 19:00N 39°50' E 017°13'714.4
2018-Jan-30 18:30N 39°57' E 017°12'714.5
2018-Jan-30 18:00N 40°04' E 017°11'714.7
2018-Jan-30 17:30N 40°12' E 017°10'714.2
2018-Jan-30 17:00N 40°19' E 017°08'612.2
2018-Jan-30 16:31N 40°25' E 017°08'5 9.2
2018-Jan-30 16:00N 40°27' E 017°13'1 1.1
2018-Jan-30 15:21N 40°28' E 017°14'0 0.2
2018-Jan-30 14:57N 40°28' E 017°14'0 0.0
2018-Jan-30 14:27N 40°28' E 017°14'0 0.1
2018-Jan-30 13:27N 40°28' E 017°14'0 0.0
2018-Jan-30 12:57N 40°28' E 017°14'0 0.1
2018-Jan-30 12:27N 40°28' E 017°14'0 0.2
2018-Jan-30 11:57N 40°28' E 017°14'0 0.2
2018-Jan-30 11:27N 40°28' E 017°13'0 0.1
2018-Jan-30 10:27N 40°28' E 017°13'0 0.0
2018-Jan-30 09:27N 40°28' E 017°13'0 0.0
2018-Jan-30 08:57N 40°28' E 017°13'0 0.0
2018-Jan-30 08:27N 40°28' E 017°14'0 0.0
2018-Jan-30 07:45N 40°28' E 017°14'0 0.0
2018-Jan-30 07:27N 40°28' E 017°14'0 0.0
2018-Jan-30 07:00N 40°28' E 017°14'0 0.0
2018-Jan-30 06:27N 40°28' E 017°14'0 0.0
2018-Jan-30 05:57N 40°28' E 017°14'0 0.0
2018-Jan-30 05:30N 40°28' E 017°14'0 0.0
2018-Jan-30 05:00N 40°28' E 017°14'0 0.0
2018-Jan-30 04:30N 40°28' E 017°14'0 0.0
2018-Jan-30 04:00N 40°28' E 017°14'0 0.0
2018-Jan-30 03:30N 40°28' E 017°14'0 0.0
2018-Jan-30 03:00N 40°28' E 017°14'0 0.0
2018-Jan-30 02:30N 40°28' E 017°14'0 0.0
2018-Jan-30 02:00N 40°28' E 017°14'0 0.0
2018-Jan-30 01:30N 40°28' E 017°14'0 0.0
2018-Jan-30 01:00N 40°28' E 017°14'0 0.0
2018-Jan-30 00:30N 40°28' E 017°14'0 0.1
2018-Jan-30 00:00N 40°28' E 017°13'0 0.1
2018-Jan-29 23:30N 40°28' E 017°13'0 0.1
2018-Jan-29 23:00N 40°28' E 017°13'0 0.0
2018-Jan-29 22:30N 40°28' E 017°13'0 0.0
2018-Jan-29 22:00N 40°28' E 017°13'0 0.0
2018-Jan-29 21:30N 40°28' E 017°13'0 0.0
2018-Jan-29 21:00N 40°28' E 017°13'0 0.0
2018-Jan-29 20:30N 40°28' E 017°13'0 0.0
2018-Jan-29 20:00N 40°28' E 017°13'0 0.0
2018-Jan-29 19:30N 40°28' E 017°13'0 0.0
2018-Jan-29 19:00N 40°28' E 017°13'0 0.0
2018-Jan-29 18:30N 40°28' E 017°13'0 0.0
2018-Jan-29 18:00N 40°28' E 017°13'0 0.1
2018-Jan-29 17:27N 40°28' E 017°13'0 0.1
2018-Jan-29 17:00N 40°28' E 017°14'0 0.0
2018-Jan-29 16:30N 40°28' E 017°14'0 0.0
2018-Jan-29 16:00N 40°28' E 017°14'0 0.0
2018-Jan-29 15:27N 40°28' E 017°14'0 0.1
2018-Jan-29 14:57N 40°28' E 017°14'0 0.1
2018-Jan-29 14:27N 40°28' E 017°14'0 0.0
2018-Jan-29 13:57N 40°28' E 017°14'0 0.0
2018-Jan-29 13:27N 40°28' E 017°14'0 0.1
2018-Jan-29 12:57N 40°28' E 017°14'0 0.2
2018-Jan-29 12:27N 40°28' E 017°14'0 0.2
2018-Jan-29 11:57N 40°28' E 017°14'0 0.0
2018-Jan-29 11:27N 40°28' E 017°14'0 0.0
2018-Jan-29 10:57N 40°28' E 017°14'0 0.0
2018-Jan-29 10:30N 40°28' E 017°14'0 0.0
2018-Jan-29 09:57N 40°28' E 017°14'0 0.1
2018-Jan-29 09:27N 40°28' E 017°14'0 0.2
2018-Jan-29 08:57N 40°28' E 017°14'0 0.2
2018-Jan-29 08:27N 40°28' E 017°14'0 0.1
2018-Jan-29 07:57N 40°28' E 017°14'0 0.0
2018-Jan-29 07:27N 40°28' E 017°14'0 0.0
2018-Jan-29 06:57N 40°28' E 017°14'0 0.0
2018-Jan-29 06:27N 40°28' E 017°14'0 0.0
2018-Jan-29 06:00N 40°28' E 017°14'0 0.0
2018-Jan-29 05:30N 40°28' E 017°14'0 0.1
2018-Jan-29 05:00N 40°28' E 017°14'0 0.0
2018-Jan-29 04:30N 40°28' E 017°14'0 0.1
2018-Jan-29 04:00N 40°28' E 017°14'0 0.0
2018-Jan-29 03:30N 40°28' E 017°14'0 0.0
2018-Jan-29 03:00N 40°28' E 017°14'0 0.0
2018-Jan-29 02:30N 40°28' E 017°14'0 0.0
2018-Jan-29 02:00N 40°28' E 017°14'0 0.0
2018-Jan-29 01:30N 40°28' E 017°14'0 0.0
2018-Jan-29 01:00N 40°28' E 017°14'0 0.0
2018-Jan-29 00:30N 40°28' E 017°14'0 0.0
2018-Jan-29 00:00N 40°28' E 017°14'0 0.0
2018-Jan-28 23:30N 40°28' E 017°14'0 0.1
2018-Jan-28 23:00N 40°28' E 017°14'0 0.1
2018-Jan-28 22:30N 40°28' E 017°14'0 0.0
2018-Jan-28 22:00N 40°28' E 017°14'0 0.0
2018-Jan-28 21:30N 40°28' E 017°14'0 0.0
2018-Jan-28 21:00N 40°28' E 017°14'0 0.0
2018-Jan-28 20:30N 40°28' E 017°14'0 0.0
2018-Jan-28 19:54N 40°28' E 017°14'0 0.1
2018-Jan-28 19:30N 40°28' E 017°14'0 0.1
2018-Jan-28 19:00N 40°28' E 017°14'0 0.0
2018-Jan-28 18:30N 40°28' E 017°14'0 0.0
2018-Jan-28 18:00N 40°28' E 017°14'0 0.0
2018-Jan-28 17:30N 40°28' E 017°14'0 0.0
2018-Jan-28 16:57N 40°28' E 017°14'0 0.0
2018-Jan-28 16:27N 40°28' E 017°14'0 0.1
2018-Jan-28 16:00N 40°28' E 017°14'0 0.0
2018-Jan-28 15:30N 40°28' E 017°14'0 0.1
2018-Jan-28 15:00N 40°28' E 017°14'0 0.0
2018-Jan-28 14:30N 40°28' E 017°14'0 0.0
2018-Jan-28 14:00N 40°28' E 017°14'0 0.0
2018-Jan-28 13:30N 40°28' E 017°14'0 0.0
2018-Jan-28 13:00N 40°28' E 017°14'0 0.2
2018-Jan-28 12:30N 40°28' E 017°14'0 0.2
2018-Jan-28 12:00N 40°28' E 017°14'0 0.1
2018-Jan-28 11:30N 40°28' E 017°14'0 0.0
2018-Jan-28 11:00N 40°28' E 017°14'0 0.0
2018-Jan-28 10:27N 40°28' E 017°14'0 0.0
2018-Jan-28 09:57N 40°28' E 017°14'0 0.0
2018-Jan-28 09:27N 40°28' E 017°14'0 0.1
2018-Jan-28 08:57N 40°28' E 017°14'0 0.1
2018-Jan-28 08:27N 40°28' E 017°14'0 0.1
2018-Jan-28 07:57N 40°28' E 017°14'0 0.1
2018-Jan-28 07:27N 40°28' E 017°14'0 0.0
2018-Jan-28 06:57N 40°28' E 017°14'0 0.1
2018-Jan-28 06:27N 40°28' E 017°14'0 0.2
2018-Jan-28 05:57N 40°28' E 017°14'0 0.1
2018-Jan-28 05:30N 40°28' E 017°14'0 0.0
2018-Jan-28 05:00N 40°28' E 017°14'0 0.0
2018-Jan-28 04:30N 40°28' E 017°14'0 0.0
2018-Jan-28 04:00N 40°28' E 017°13'0 0.0
2018-Jan-28 03:30N 40°28' E 017°13'0 0.0
2018-Jan-28 03:00N 40°28' E 017°13'0 0.0
2018-Jan-28 02:30N 40°28' E 017°13'0 0.1
2018-Jan-28 02:00N 40°28' E 017°13'0 0.0
2018-Jan-28 01:30N 40°28' E 017°13'0 0.0
2018-Jan-28 01:00N 40°28' E 017°13'0 0.0
2018-Jan-28 00:30N 40°28' E 017°13'0 0.0
2018-Jan-28 00:00N 40°28' E 017°13'0 0.0
2018-Jan-27 23:30N 40°28' E 017°13'0 0.0
2018-Jan-27 23:00N 40°28' E 017°13'0 0.0
2018-Jan-27 22:30N 40°28' E 017°13'0 0.0
2018-Jan-27 22:00N 40°28' E 017°13'0 0.0
2018-Jan-27 21:30N 40°28' E 017°13'0 0.0
2018-Jan-27 21:00N 40°28' E 017°13'0 0.1
2018-Jan-27 20:30N 40°28' E 017°13'0 0.0
2018-Jan-27 20:00N 40°28' E 017°13'0 0.0
2018-Jan-27 19:30N 40°28' E 017°13'0 0.0
2018-Jan-27 18:57N 40°28' E 017°13'0 0.0
2018-Jan-27 18:30N 40°28' E 017°13'0 0.0
2018-Jan-27 18:00N 40°28' E 017°13'0 0.0
2018-Jan-27 17:30N 40°28' E 017°13'0 0.2
2018-Jan-27 17:00N 40°28' E 017°13'0 0.1
2018-Jan-27 16:30N 40°28' E 017°13'0 0.1
2018-Jan-27 16:00N 40°28' E 017°13'0 0.2
2018-Jan-27 15:30N 40°28' E 017°13'0 0.0
2018-Jan-27 14:57N 40°28' E 017°13'0 0.0
2018-Jan-27 14:27N 40°28' E 017°13'0 0.1
2018-Jan-27 13:57N 40°28' E 017°13'0 0.0
2018-Jan-27 13:27N 40°28' E 017°13'0 0.0
2018-Jan-27 12:57N 40°28' E 017°13'0 0.0
2018-Jan-27 12:27N 40°28' E 017°13'0 0.0
2018-Jan-27 12:00N 40°28' E 017°13'0 0.0
2018-Jan-27 11:27N 40°28' E 017°13'0 0.0
2018-Jan-27 10:57N 40°28' E 017°13'0 0.0
2018-Jan-27 10:30N 40°28' E 017°13'0 0.0
2018-Jan-27 10:00N 40°28' E 017°13'0 0.0
2018-Jan-27 09:27N 40°28' E 017°13'0 0.0
2018-Jan-27 08:57N 40°28' E 017°13'0 0.0
2018-Jan-27 08:27N 40°28' E 017°13'0 0.0
2018-Jan-27 08:00N 40°28' E 017°13'0 0.0
2018-Jan-27 07:30N 40°28' E 017°13'0 0.0
2018-Jan-27 07:00N 40°28' E 017°13'0 0.0
2018-Jan-27 06:30N 40°28' E 017°13'0 0.0
2018-Jan-27 05:57N 40°28' E 017°13'0 0.0
2018-Jan-27 05:30N 40°28' E 017°13'  

Dump ship's entire track history